Time;durP1;ratioP1;P1;durP2;ratioP2;P2;SDS_P1;SDS_P2;PMS_P1;PMS_P2;Temp;Humidity;BMP_temperature;BMP_pressure;BME280_temperature;BME280_humidity;BME280_pressure;Samples;Min_cycle;Max_cycle;Signal;HPM_P1;HPM_P2
2023/09/27 00:00:51;;;;;;;25.33;24.47;;;14.20;99.90;;;;;;5072432;28;20233;-66
2023/09/27 00:03:18;;;;;;;21.17;20.43;;;14.30;99.90;;;;;;5067701;28;20234;-66
2023/09/27 00:05:45;;;;;;;21.30;20.60;;;14.20;99.90;;;;;;5063551;28;20208;-66
2023/09/27 00:08:12;;;;;;;20.07;19.37;;;14.30;99.90;;;;;;5064711;28;20203;-66
2023/09/27 00:10:39;;;;;;;23.17;22.37;;;14.30;99.90;;;;;;5065462;28;20245;-66
2023/09/27 00:13:07;;;;;;;20.57;19.83;;;14.40;99.90;;;;;;5061255;28;20220;-65
2023/09/27 00:15:34;;;;;;;21.37;20.63;;;14.40;99.90;;;;;;5060553;28;20257;-65
2023/09/27 00:18:01;;;;;;;22.13;21.35;;;14.40;99.90;;;;;;5062602;28;20210;-67
2023/09/27 00:20:28;;;;;;;21.30;20.55;;;14.40;99.90;;;;;;5057718;28;20598;-67
2023/09/27 00:22:55;;;;;;;20.60;19.90;;;14.40;99.90;;;;;;5059510;28;20318;-67
2023/09/27 00:25:22;;;;;;;24.07;23.13;;;14.40;99.90;;;;;;5054398;28;20699;-68
2023/09/27 00:27:48;;;;;;;29.53;28.53;;;14.40;99.90;;;;;;5054623;28;20230;-66
2023/09/27 00:30:17;;;;;;;24.93;24.07;;;14.40;99.90;;;;;;5054587;28;20315;-66
2023/09/27 00:32:44;;;;;;;29.00;28.00;;;14.40;99.90;;;;;;5054320;28;20225;-66
2023/09/27 00:35:14;;;;;;;26.17;25.27;;;14.50;99.90;;;;;;5054243;28;20203;-66
2023/09/27 00:37:41;;;;;;;26.30;25.33;;;14.50;99.90;;;;;;5054386;28;20207;-65
2023/09/27 00:40:10;;;;;;;22.13;21.30;;;14.50;99.90;;;;;;5066067;28;20231;-66
2023/09/27 00:42:37;;;;;;;22.00;21.27;;;14.50;99.90;;;;;;5074487;28;20214;-68
2023/09/27 00:45:05;;;;;;;23.33;22.47;;;14.50;99.90;;;;;;5074492;28;20219;-65
2023/09/27 00:47:34;;;;;;;26.20;25.30;;;14.40;99.90;;;;;;5070761;28;20290;-68
2023/09/27 00:50:02;;;;;;;22.20;21.40;;;14.30;99.90;;;;;;5074157;28;20286;-67
2023/09/27 00:52:29;;;;;;;21.67;20.97;;;14.30;99.90;;;;;;5081092;28;20203;-67
2023/09/27 00:54:56;;;;;;;24.83;23.97;;;14.20;99.90;;;;;;5074332;28;20300;-67
2023/09/27 00:57:23;;;;;;;21.97;21.23;;;14.10;99.90;;;;;;5073876;28;20213;-66
2023/09/27 00:59:51;;;;;;;24.48;23.63;;;14.10;99.90;;;;;;5073171;28;20306;-66
2023/09/27 01:02:18;;;;;;;28.83;27.83;;;14.10;99.90;;;;;;5060581;28;20650;-66
2023/09/27 01:04:46;;;;;;;24.07;23.27;;;14.10;99.90;;;;;;5053862;28;20212;-67
2023/09/27 01:07:13;;;;;;;25.73;24.83;;;14.10;99.90;;;;;;5053472;28;20587;-67
2023/09/27 01:09:40;;;;;;;25.10;24.20;;;14.00;99.90;;;;;;5053820;28;20294;-66
2023/09/27 01:12:07;;;;;;;23.40;22.60;;;14.00;99.90;;;;;;5073274;28;20223;-67
2023/09/27 01:14:35;;;;;;;29.90;28.83;;;13.90;99.90;;;;;;5074180;28;20644;-66
2023/09/27 01:17:09;;;;;;;20.40;19.70;;;13.90;99.90;;;;;;5073225;28;20215;-67
2023/09/27 01:19:36;;;;;;;22.90;22.10;;;13.90;99.90;;;;;;5073570;28;21006;-66
2023/09/27 01:22:04;;;;;;;23.87;23.07;;;13.90;99.90;;;;;;5073550;28;20266;-66
2023/09/27 01:24:36;;;;;;;30.47;29.37;;;13.90;99.90;;;;;;5073665;28;20253;-66
2023/09/27 01:27:05;;;;;;;22.20;21.40;;;13.80;99.90;;;;;;5073730;28;20212;-66
2023/09/27 01:29:33;;;;;;;24.93;24.07;;;13.90;99.90;;;;;;5073686;28;20215;-66
2023/09/27 01:32:00;;;;;;;24.60;23.77;;;13.80;99.90;;;;;;5071489;28;20220;-67
2023/09/27 01:34:26;;;;;;;26.30;25.40;;;13.90;99.90;;;;;;5071886;28;20303;-66
2023/09/27 01:36:54;;;;;;;22.23;21.47;;;13.90;99.90;;;;;;5080399;28;20207;-66
2023/09/27 01:39:21;;;;;;;22.17;21.37;;;13.80;99.90;;;;;;5086286;28;20211;-67
2023/09/27 01:41:49;;;;;;;24.08;23.27;;;13.70;99.90;;;;;;5082894;28;20231;-67
2023/09/27 01:44:16;;;;;;;20.33;19.63;;;13.70;99.90;;;;;;5086360;28;20218;-68
2023/09/27 01:46:43;;;;;;;26.17;25.27;;;13.70;99.90;;;;;;5081157;28;20211;-66
2023/09/27 01:49:09;;;;;;;20.87;20.17;;;13.80;99.90;;;;;;5073095;28;20290;-65
2023/09/27 01:51:37;;;;;;;18.57;17.97;;;13.70;99.90;;;;;;5072614;28;20231;-67
2023/09/27 01:54:04;;;;;;;19.67;18.97;;;13.70;99.90;;;;;;5072965;28;20211;-68
2023/09/27 01:56:31;;;;;;;19.37;18.67;;;13.70;99.90;;;;;;5072405;28;20211;-67
2023/09/27 01:58:59;;;;;;;19.40;18.73;;;13.70;99.90;;;;;;5072834;28;20215;-67
2023/09/27 02:01:26;;;;;;;19.43;18.77;;;13.70;99.90;;;;;;5072489;28;20233;-68
2023/09/27 02:03:52;;;;;;;22.20;21.40;;;13.70;99.90;;;;;;5072486;28;20210;-66
2023/09/27 02:06:19;;;;;;;19.87;19.17;;;13.70;99.90;;;;;;5072654;28;20213;-66
2023/09/27 02:08:46;;;;;;;23.27;22.43;;;13.80;99.90;;;;;;5072593;28;20207;-66
2023/09/27 02:11:16;;;;;;;17.87;17.27;;;13.80;99.90;;;;;;5072629;28;20245;-68
2023/09/27 02:13:43;;;;;;;23.97;23.10;;;13.80;99.90;;;;;;5072497;28;20682;-68
2023/09/27 02:16:11;;;;;;;23.70;22.87;;;13.70;99.90;;;;;;5072353;28;20211;-67
2023/09/27 02:18:39;;;;;;;19.53;18.83;;;13.70;99.90;;;;;;5071560;28;20210;-67
2023/09/27 02:21:06;;;;;;;17.97;17.37;;;13.70;99.90;;;;;;5072046;28;20306;-66
2023/09/27 02:23:32;;;;;;;18.15;17.55;;;13.80;99.90;;;;;;5072201;28;20211;-66
2023/09/27 02:26:00;;;;;;;41.45;39.60;;;13.70;99.90;;;;;;5072165;28;20242;-66
2023/09/27 02:28:26;;;;;;;21.90;21.17;;;13.70;99.90;;;;;;5072469;28;20249;-66
2023/09/27 02:30:53;;;;;;;20.00;19.30;;;13.80;99.90;;;;;;5072358;28;20601;-67
2023/09/27 02:33:22;;;;;;;32.17;30.73;;;13.70;99.90;;;;;;5072211;28;20206;-67
2023/09/27 02:35:49;;;;;;;30.63;29.53;;;13.80;99.90;;;;;;5071999;28;20214;-66
2023/09/27 02:38:16;;;;;;;21.73;20.97;;;13.80;99.90;;;;;;5072672;28;20582;-67
2023/09/27 02:40:43;;;;;;;71.20;67.07;;;13.90;99.90;;;;;;5072349;28;20243;-66
2023/09/27 02:43:10;;;;;;;27.10;26.07;;;13.90;99.90;;;;;;5072257;28;20230;-68
2023/09/27 02:45:36;;;;;;;25.20;24.30;;;14.00;99.90;;;;;;5071709;28;20293;-67
2023/09/27 02:48:04;;;;;;;24.30;23.30;;;13.90;99.90;;;;;;5071879;28;20669;-67
2023/09/27 02:50:33;;;;;;;18.30;17.70;;;13.80;99.90;;;;;;5071822;28;20234;-66
2023/09/27 02:52:59;;;;;;;21.40;20.70;;;13.90;99.90;;;;;;5071914;28;20606;-67
2023/09/27 02:55:26;;;;;;;19.67;18.97;;;13.80;99.90;;;;;;5071546;28;20269;-67
2023/09/27 02:57:53;;;;;;;20.30;19.60;;;13.80;99.90;;;;;;5071946;28;20222;-67
2023/09/27 03:00:20;;;;;;;17.67;17.07;;;13.80;99.90;;;;;;5074736;28;20326;-67
2023/09/27 03:02:47;;;;;;;19.60;18.93;;;13.80;99.90;;;;;;5077759;28;20581;-68
2023/09/27 03:05:15;;;;;;;19.03;18.37;;;13.90;99.90;;;;;;5079166;28;20577;-67
2023/09/27 03:07:44;;;;;;;15.93;15.43;;;13.80;99.90;;;;;;5078625;28;20218;-68
2023/09/27 03:10:11;;;;;;;17.00;16.40;;;13.70;99.90;;;;;;5072004;28;20231;-66
2023/09/27 03:12:39;;;;;;;16.30;15.70;;;13.70;99.90;;;;;;5071517;28;20332;-67
2023/09/27 03:15:11;;;;;;;16.60;16.00;;;13.70;99.90;;;;;;5071414;28;20219;-67
2023/09/27 03:17:38;;;;;;;18.30;17.70;;;13.70;99.90;;;;;;5071348;28;20211;-66
2023/09/27 03:20:13;;;;;;;16.90;16.30;;;13.80;99.90;;;;;;5071371;28;20220;-65
2023/09/27 03:22:41;;;;;;;19.83;19.13;;;13.80;99.90;;;;;;5071562;28;20230;-67
2023/09/27 03:25:10;;;;;;;16.80;16.20;;;13.70;99.90;;;;;;5071633;28;20203;-66
2023/09/27 03:27:37;;;;;;;18.17;17.57;;;13.70;99.90;;;;;;5071015;28;20298;-65
2023/09/27 03:30:05;;;;;;;19.90;19.20;;;13.70;99.90;;;;;;5070950;28;20588;-66
2023/09/27 03:32:32;;;;;;;18.87;18.17;;;13.70;99.90;;;;;;5071419;28;20662;-68
2023/09/27 03:35:00;;;;;;;20.93;20.23;;;13.80;99.90;;;;;;5071446;28;20214;-68
2023/09/27 03:37:27;;;;;;;21.17;20.47;;;13.80;99.90;;;;;;5071183;28;20210;-68
2023/09/27 03:39:55;;;;;;;21.33;20.63;;;13.70;99.90;;;;;;5071770;28;20203;-68
2023/09/27 03:42:24;;;;;;;21.35;20.58;;;13.80;99.90;;;;;;5072166;28;20237;-66
2023/09/27 03:44:51;;;;;;;20.60;19.90;;;13.90;99.90;;;;;;5075408;28;20203;-67
2023/09/27 03:47:18;;;;;;;22.30;21.50;;;14.00;99.90;;;;;;5079351;28;20238;-66
2023/09/27 03:49:45;;;;;;;23.13;22.33;;;13.90;99.90;;;;;;5080988;28;20211;-67
2023/09/27 03:52:13;;;;;;;23.33;22.53;;;13.90;99.90;;;;;;5074234;28;20199;-66
2023/09/27 03:54:40;;;;;;;20.87;20.17;;;13.90;99.90;;;;;;5069220;28;20210;-66
2023/09/27 03:57:07;;;;;;;20.90;20.20;;;13.90;99.90;;;;;;5070366;28;20209;-68
2023/09/27 03:59:35;;;;;;;21.20;20.50;;;13.90;99.90;;;;;;5073809;28;20219;-67
2023/09/27 04:02:02;;;;;;;21.20;20.50;;;13.90;99.90;;;;;;5073367;28;20253;-66
2023/09/27 04:04:29;;;;;;;20.20;19.50;;;13.80;99.90;;;;;;5066838;28;20208;-66
2023/09/27 04:06:56;;;;;;;20.40;19.70;;;13.80;99.90;;;;;;5063965;28;20218;-67
2023/09/27 04:09:23;;;;;;;19.53;18.83;;;13.70;99.90;;;;;;5069294;28;20233;-65
2023/09/27 04:11:49;;;;;;;21.87;21.13;;;13.60;99.90;;;;;;5067936;28;20223;-66
2023/09/27 04:14:16;;;;;;;18.47;17.87;;;13.50;99.90;;;;;;5069305;28;20233;-67
2023/09/27 04:16:45;;;;;;;18.97;18.27;;;13.30;99.90;;;;;;5072509;28;20211;-66
2023/09/27 04:19:11;;;;;;;22.77;22.00;;;13.10;99.90;;;;;;5064609;28;20213;-67
2023/09/27 04:21:38;;;;;;;18.63;17.93;;;13.00;99.90;;;;;;5060912;28;20227;-67
2023/09/27 04:24:06;;;;;;;19.27;18.60;;;13.00;99.90;;;;;;5071501;28;20230;-65
2023/09/27 04:26:33;;;;;;;20.00;19.30;;;12.90;99.90;;;;;;5067504;28;20206;-66
2023/09/27 04:29:00;;;;;;;21.87;21.07;;;12.90;99.90;;;;;;5063195;28;20299;-67
2023/09/27 04:31:27;;;;;;;17.73;17.13;;;12.90;99.90;;;;;;5068523;28;20696;-66
2023/09/27 04:33:56;;;;;;;22.57;21.77;;;12.90;99.90;;;;;;5072386;28;20677;-65
2023/09/27 04:36:23;;;;;;;20.57;19.87;;;12.80;99.90;;;;;;5065432;28;20207;-67
2023/09/27 04:38:50;;;;;;;18.90;18.30;;;12.90;99.90;;;;;;5066418;28;20297;-67
2023/09/27 04:41:20;;;;;;;18.43;17.83;;;12.80;99.90;;;;;;5068398;28;20614;-66
2023/09/27 04:43:47;;;;;;;18.83;18.13;;;12.90;99.90;;;;;;5066692;28;20736;-65
2023/09/27 04:46:15;;;;;;;17.23;16.63;;;12.80;99.90;;;;;;5067061;28;20212;-66
2023/09/27 04:48:42;;;;;;;18.77;18.17;;;12.90;99.90;;;;;;5061114;28;20210;-65
2023/09/27 04:51:10;;;;;;;17.53;16.93;;;12.70;99.90;;;;;;5071562;28;20625;-65
2023/09/27 04:53:37;;;;;;;19.63;18.93;;;12.60;99.90;;;;;;5078975;28;20204;-65
2023/09/27 04:56:05;;;;;;;18.13;17.53;;;12.60;99.90;;;;;;5069649;28;20277;-65
2023/09/27 04:58:32;;;;;;;16.73;16.13;;;12.60;99.90;;;;;;5074197;28;20219;-64
2023/09/27 05:00:59;;;;;;;15.50;15.00;;;12.50;99.90;;;;;;5073595;28;20227;-65
2023/09/27 05:03:26;;;;;;;19.40;18.63;;;12.50;99.90;;;;;;5073865;28;20235;-66
2023/09/27 05:05:53;;;;;;;18.67;18.07;;;12.50;99.90;;;;;;5072308;28;20210;-65
2023/09/27 05:08:21;;;;;;;19.07;18.37;;;12.50;99.90;;;;;;5071114;28;20233;-65
2023/09/27 05:10:48;;;;;;;16.80;16.10;;;12.50;99.90;;;;;;5074967;28;20326;-65
2023/09/27 05:13:15;;;;;;;16.90;16.30;;;12.40;99.90;;;;;;5075341;28;20203;-65
2023/09/27 05:15:42;;;;;;;16.63;16.03;;;12.40;99.90;;;;;;5073749;28;20221;-65
2023/09/27 05:18:09;;;;;;;18.23;17.63;;;12.40;99.90;;;;;;5080479;28;20235;-64
2023/09/27 05:20:36;;;;;;;16.30;15.77;;;12.40;99.90;;;;;;5077698;28;20315;-65
2023/09/27 05:23:04;;;;;;;17.30;16.70;;;12.40;99.90;;;;;;5075649;28;20689;-64
2023/09/27 05:25:32;;;;;;;18.73;18.03;;;12.50;99.90;;;;;;5071805;28;20244;-65
2023/09/27 05:27:59;;;;;;;17.97;17.27;;;12.50;99.90;;;;;;5074111;28;20203;-65
2023/09/27 05:30:26;;;;;;;19.67;18.97;;;12.50;99.90;;;;;;5073821;28;20229;-65
2023/09/27 05:32:53;;;;;;;17.60;17.00;;;12.60;99.90;;;;;;5074543;28;20210;-65
2023/09/27 05:35:20;;;;;;;20.83;20.13;;;12.50;99.90;;;;;;5077672;28;20273;-65
2023/09/27 05:37:47;;;;;;;19.03;18.37;;;12.60;99.90;;;;;;5076950;28;20237;-64
2023/09/27 05:40:14;;;;;;;19.13;18.43;;;12.60;99.90;;;;;;5077351;28;20718;-65
2023/09/27 05:42:43;;;;;;;18.20;17.60;;;12.50;99.90;;;;;;5077151;28;20234;-66
2023/09/27 05:45:11;;;;;;;17.23;16.63;;;12.50;99.90;;;;;;5073331;28;20211;-65
2023/09/27 05:47:39;;;;;;;20.47;19.77;;;12.60;99.90;;;;;;5074732;28;20282;-65
2023/09/27 05:50:08;;;;;;;19.73;19.03;;;12.60;99.90;;;;;;5072957;28;21041;-66
2023/09/27 05:52:35;;;;;;;18.97;18.30;;;12.60;99.90;;;;;;5071596;28;20234;-66
2023/09/27 05:55:05;;;;;;;19.23;18.53;;;12.50;99.90;;;;;;5072458;28;20211;-66
2023/09/27 05:57:32;;;;;;;20.37;19.67;;;12.50;99.90;;;;;;5070344;28;20215;-65
2023/09/27 06:00:00;;;;;;;20.77;20.07;;;12.50;99.90;;;;;;5069222;28;20290;-65
2023/09/27 06:02:30;;;;;;;21.83;21.02;;;12.50;99.90;;;;;;5071631;28;20631;-64
2023/09/27 06:04:59;;;;;;;19.27;18.57;;;12.50;99.90;;;;;;5072176;28;20215;-64
2023/09/27 06:07:26;;;;;;;18.83;18.13;;;12.70;99.90;;;;;;5071958;28;20203;-64
2023/09/27 06:09:52;;;;;;;20.10;19.40;;;12.70;99.90;;;;;;5071868;28;20215;-64
2023/09/27 06:12:19;;;;;;;20.70;20.00;;;12.80;99.90;;;;;;5072365;28;20211;-65
2023/09/27 06:14:46;;;;;;;19.90;19.20;;;12.90;99.90;;;;;;5071874;28;20577;-65
2023/09/27 06:17:17;;;;;;;20.23;19.53;;;12.90;99.90;;;;;;5071851;28;20690;-65
2023/09/27 06:19:44;;;;;;;18.87;18.20;;;13.00;99.90;;;;;;5071758;28;20251;-65
2023/09/27 06:22:13;;;;;;;21.33;20.60;;;13.10;99.90;;;;;;5070291;28;20597;-65
2023/09/27 06:24:40;;;;;;;19.45;18.75;;;13.00;99.90;;;;;;5068800;28;20253;-65
2023/09/27 06:27:07;;;;;;;19.93;19.23;;;13.10;99.90;;;;;;5070324;28;20666;-66
2023/09/27 06:29:35;;;;;;;19.23;18.53;;;13.10;99.90;;;;;;5071961;28;20219;-66
2023/09/27 06:32:01;;;;;;;21.97;21.20;;;13.10;99.90;;;;;;5071555;28;20646;-65
2023/09/27 06:34:30;;;;;;;22.60;21.80;;;13.10;99.90;;;;;;5071232;28;20217;-67
2023/09/27 06:36:56;;;;;;;21.92;21.15;;;13.20;99.90;;;;;;5069872;28;20207;-66
2023/09/27 06:39:24;;;;;;;19.77;19.07;;;13.40;99.90;;;;;;5070397;28;20222;-65
2023/09/27 06:41:52;;;;;;;25.53;24.53;;;13.30;99.90;;;;;;5064774;28;20779;-65
2023/09/27 06:44:19;;;;;;;41.97;40.10;;;13.50;99.90;;;;;;5071314;28;20215;-66
2023/09/27 06:46:46;;;;;;;20.77;20.00;;;13.50;99.90;;;;;;5069982;28;20209;-65
2023/09/27 06:49:13;;;;;;;19.17;18.50;;;13.60;99.90;;;;;;5068735;28;20212;-65
2023/09/27 06:51:43;;;;;;;38.83;37.20;;;13.60;99.90;;;;;;5066462;28;20226;-68
2023/09/27 06:54:10;;;;;;;19.00;18.40;;;13.60;99.90;;;;;;5065302;28;20666;-64
2023/09/27 06:56:37;;;;;;;20.53;19.83;;;13.70;99.90;;;;;;5070832;28;20627;-65
2023/09/27 06:59:03;;;;;;;19.50;18.80;;;13.70;99.90;;;;;;5071440;28;20219;-64
2023/09/27 07:01:31;;;;;;;19.93;19.13;;;13.80;99.90;;;;;;5068960;28;20238;-66
2023/09/27 07:03:58;;;;;;;18.65;18.05;;;14.00;99.90;;;;;;5068062;28;20227;-63
2023/09/27 07:06:25;;;;;;;19.77;19.07;;;14.10;99.90;;;;;;5061388;28;20534;-66
2023/09/27 07:08:57;;;;;;;20.83;20.13;;;14.20;99.90;;;;;;5070668;28;20596;-67
2023/09/27 07:11:24;;;;;;;20.17;19.47;;;14.40;99.90;;;;;;5069549;28;20237;-64
2023/09/27 07:13:51;;;;;;;20.97;20.27;;;14.50;99.90;;;;;;5067818;28;20275;-65
2023/09/27 07:16:26;;;;;;;20.17;19.47;;;14.60;99.90;;;;;;5069832;28;20320;-64
2023/09/27 07:18:53;;;;;;;20.73;19.93;;;14.70;99.90;;;;;;5070391;28;20214;-65
2023/09/27 07:21:20;;;;;;;21.03;20.33;;;14.90;99.90;;;;;;5063286;28;20696;-65
2023/09/27 07:23:49;;;;;;;22.50;21.73;;;14.90;99.90;;;;;;5067074;28;20713;-65
2023/09/27 07:26:17;;;;;;;21.57;20.83;;;15.10;99.90;;;;;;5068933;28;20709;-67
2023/09/27 07:28:45;;;;;;;23.40;22.50;;;15.20;99.90;;;;;;5069581;28;20207;-65
2023/09/27 07:31:13;;;;;;;17.00;16.40;;;15.30;99.90;;;;;;5068769;28;20237;-65
2023/09/27 07:33:40;;;;;;;16.80;16.20;;;15.50;99.90;;;;;;5067566;28;20577;-65
2023/09/27 07:36:08;;;;;;;16.43;15.83;;;15.60;99.90;;;;;;5080576;28;20223;-65
2023/09/27 07:38:35;;;;;;;17.67;17.07;;;15.70;99.90;;;;;;5079932;28;20207;-67
2023/09/27 07:41:02;;;;;;;18.13;17.53;;;15.90;99.90;;;;;;5071972;28;20230;-63
2023/09/27 07:43:30;;;;;;;17.93;17.23;;;16.00;99.90;;;;;;5068987;28;20605;-66
2023/09/27 07:45:59;;;;;;;16.47;15.87;;;16.20;99.90;;;;;;5074557;28;20195;-64
2023/09/27 07:48:26;;;;;;;16.00;15.47;;;16.40;99.90;;;;;;5071489;28;20917;-64
2023/09/27 07:50:54;;;;;;;14.87;14.37;;;16.50;99.90;;;;;;5063954;28;20227;-64
2023/09/27 07:53:21;;;;;;;15.00;14.50;;;16.60;99.90;;;;;;5065652;28;20282;-63
2023/09/27 07:55:50;;;;;;;14.53;14.03;;;16.80;99.90;;;;;;5069489;28;20217;-65
2023/09/27 07:58:17;;;;;;;15.90;15.30;;;17.00;99.90;;;;;;5069162;28;20272;-66
2023/09/27 08:00:45;;;;;;;15.67;15.07;;;17.10;99.90;;;;;;5068766;28;20246;-64
2023/09/27 08:03:14;;;;;;;14.43;13.93;;;17.20;99.90;;;;;;5065462;28;20359;-66
2023/09/27 08:05:44;;;;;;;15.27;14.47;;;17.20;99.90;;;;;;5069977;28;20214;-67
2023/09/27 08:08:12;;;;;;;14.67;14.17;;;17.30;99.90;;;;;;5066238;28;20207;-66
2023/09/27 08:10:43;;;;;;;16.67;16.07;;;17.40;99.90;;;;;;5060491;28;20310;-66
2023/09/27 08:13:11;;;;;;;16.80;16.20;;;17.40;99.90;;;;;;5068239;28;20203;-66
2023/09/27 08:15:39;;;;;;;14.23;13.73;;;17.50;99.90;;;;;;5069692;28;20195;-68
2023/09/27 08:18:07;;;;;;;14.03;13.53;;;17.70;99.90;;;;;;5067430;28;20803;-66
2023/09/27 08:20:35;;;;;;;13.60;13.10;;;17.70;99.90;;;;;;5073378;28;20219;-67
2023/09/27 08:23:03;;;;;;;13.23;12.73;;;17.80;99.90;;;;;;5060937;28;20231;-66
2023/09/27 08:25:30;;;;;;;13.87;13.37;;;18.00;99.90;;;;;;5065317;28;20207;-64
2023/09/27 08:27:56;;;;;;;33.77;32.33;;;18.10;99.90;;;;;;5067126;28;20921;-67
2023/09/27 08:30:24;;;;;;;15.00;14.40;;;18.20;99.90;;;;;;5068342;28;20599;-68
2023/09/27 08:32:51;;;;;;;14.07;13.57;;;18.30;99.90;;;;;;5069940;28;20199;-68
2023/09/27 08:35:20;;;;;;;14.53;14.03;;;18.40;99.90;;;;;;5065059;28;20292;-66
2023/09/27 08:37:47;;;;;;;14.30;13.80;;;18.50;99.90;;;;;;5060484;28;20231;-65
2023/09/27 08:40:15;;;;;;;14.77;14.27;;;18.60;99.90;;;;;;5079240;28;20231;-65
2023/09/27 08:42:43;;;;;;;15.03;14.47;;;18.60;99.90;;;;;;5087511;28;20219;-66
2023/09/27 08:45:14;;;;;;;15.40;14.80;;;18.80;99.90;;;;;;5090261;28;20234;-66
2023/09/27 08:47:42;;;;;;;15.40;14.83;;;18.90;99.90;;;;;;5086994;28;20207;-65
2023/09/27 08:50:13;;;;;;;14.73;14.23;;;19.00;99.90;;;;;;5063275;28;20220;-66
2023/09/27 08:52:46;;;;;;;14.63;14.05;;;19.10;99.90;;;;;;5068255;28;20714;-67
2023/09/27 08:55:13;;;;;;;15.57;14.97;;;19.20;99.90;;;;;;5071766;28;20298;-67
2023/09/27 08:57:45;;;;;;;15.30;14.80;;;19.30;99.90;;;;;;5070286;28;20212;-65
2023/09/27 09:00:19;;;;;;;15.60;15.10;;;19.30;99.90;;;;;;5067590;28;20224;-66
2023/09/27 09:02:49;;;;;;;15.53;15.03;;;19.50;99.90;;;;;;5071324;28;20843;-64
2023/09/27 09:05:17;;;;;;;15.23;14.73;;;19.60;99.90;;;;;;5070578;28;20195;-65
2023/09/27 09:07:46;;;;;;;15.97;15.37;;;19.70;99.90;;;;;;5061943;28;20212;-68
2023/09/27 09:10:14;;;;;;;19.77;19.00;;;19.70;99.90;;;;;;5068419;28;20223;-68
2023/09/27 09:12:42;;;;;;;15.03;14.53;;;19.90;99.90;;;;;;5070000;28;20196;-66
2023/09/27 09:15:14;;;;;;;16.00;15.50;;;19.80;99.90;;;;;;5066633;28;20509;-66
2023/09/27 09:17:47;;;;;;;14.90;14.40;;;19.90;99.90;;;;;;5066320;28;20207;-64
2023/09/27 09:20:22;;;;;;;14.35;13.85;;;20.00;99.90;;;;;;5066727;28;20228;-66
2023/09/27 09:22:53;;;;;;;14.50;14.00;;;20.20;99.90;;;;;;5063051;28;20756;-66
2023/09/27 09:25:22;;;;;;;15.07;14.57;;;20.30;99.90;;;;;;5065700;28;20599;-66
2023/09/27 09:28:03;;;;;;;15.87;15.27;;;20.40;99.90;;;;;;5068154;28;20207;-64
2023/09/27 09:30:35;;;;;;;15.47;14.97;;;20.40;99.90;;;;;;5070375;28;20222;-65
2023/09/27 09:33:03;;;;;;;16.23;15.63;;;20.50;99.90;;;;;;5067787;28;20208;-65
2023/09/27 09:35:31;;;;;;;15.63;15.13;;;20.60;99.90;;;;;;5069343;28;20207;-65
2023/09/27 09:38:01;;;;;;;16.10;15.60;;;20.70;99.90;;;;;;5072487;28;20222;-65
2023/09/27 09:40:29;;;;;;;16.87;16.27;;;20.80;99.90;;;;;;5068665;28;20674;-65
2023/09/27 09:42:59;;;;;;;20.33;19.63;;;20.90;99.90;;;;;;5067596;28;21129;-64
2023/09/27 09:45:26;;;;;;;18.47;17.77;;;21.00;99.90;;;;;;5071156;28;20611;-65
2023/09/27 09:47:54;;;;;;;16.93;16.33;;;21.00;99.90;;;;;;5073943;28;20208;-64
2023/09/27 09:50:21;;;;;;;17.02;16.42;;;20.90;99.90;;;;;;5067876;28;20322;-65
2023/09/27 09:52:54;;;;;;;16.60;16.00;;;21.00;99.90;;;;;;5071050;28;20227;-65
2023/09/27 09:55:24;;;;;;;16.83;16.23;;;21.30;99.90;;;;;;5073120;28;20658;-65
2023/09/27 09:57:59;;;;;;;16.20;15.60;;;21.30;99.90;;;;;;5074062;28;20219;-65
2023/09/27 10:00:27;;;;;;;16.73;16.13;;;21.50;99.90;;;;;;5086435;28;20211;-66
2023/09/27 10:03:01;;;;;;;16.23;15.63;;;21.50;99.90;;;;;;5082027;28;20204;-65
2023/09/27 10:05:35;;;;;;;16.45;15.85;;;21.60;99.90;;;;;;5085415;28;20578;-67
2023/09/27 10:08:02;;;;;;;17.15;16.55;;;21.80;99.90;;;;;;5081045;28;20198;-67
2023/09/27 10:10:32;;;;;;;16.77;16.17;;;21.90;99.90;;;;;;5068309;28;20249;-66
2023/09/27 10:13:01;;;;;;;17.47;16.87;;;22.00;99.90;;;;;;5074167;28;20389;-66
2023/09/27 10:15:30;;;;;;;18.07;17.47;;;22.00;99.90;;;;;;5069760;28;20199;-65
2023/09/27 10:18:29;;;;;;;18.27;17.67;;;22.10;99.90;;;;;;5068544;28;20699;-64
2023/09/27 10:21:08;;;;;;;19.83;19.13;;;22.30;99.90;;;;;;5057215;28;20224;-67
2023/09/27 10:23:58;;;;;;;20.63;19.93;;;22.40;99.90;;;;;;5062349;28;20230;-64
2023/09/27 10:26:36;;;;;;;19.80;19.10;;;22.50;99.90;;;;;;5068641;28;20582;-66
2023/09/27 10:29:15;;;;;;;20.37;19.67;;;22.70;99.90;;;;;;5071497;28;20317;-65
2023/09/27 10:32:20;;;;;;;19.52;18.83;;;22.70;99.90;;;;;;5072904;28;20227;-65
2023/09/27 10:34:48;;;;;;;18.63;18.03;;;22.70;99.90;;;;;;5068915;28;20196;-66
2023/09/27 10:37:16;;;;;;;18.27;17.67;;;22.80;99.90;;;;;;5068906;28;20317;-66
2023/09/27 10:40:19;;;;;;;20.13;19.43;;;22.70;99.90;;;;;;5067273;28;20214;-64
2023/09/27 10:42:47;;;;;;;16.05;15.55;;;22.80;99.90;;;;;;5068051;28;20654;-66
2023/09/27 10:45:14;;;;;;;16.77;16.17;;;22.90;99.90;;;;;;5065073;28;20215;-66
2023/09/27 10:47:41;;;;;;;18.33;17.67;;;23.10;99.90;;;;;;5067768;28;20207;-66
2023/09/27 10:50:10;;;;;;;16.75;16.15;;;23.20;99.90;;;;;;5067664;28;20214;-66
2023/09/27 10:52:38;;;;;;;17.77;17.17;;;23.30;99.90;;;;;;5065201;28;20717;-65
2023/09/27 10:55:13;;;;;;;17.60;17.00;;;23.30;99.90;;;;;;5067601;28;20217;-65
2023/09/27 10:57:41;;;;;;;17.95;17.35;;;23.30;99.90;;;;;;5065344;28;20286;-65
2023/09/27 11:00:13;;;;;;;17.25;16.55;;;23.30;99.90;;;;;;5067940;28;20212;-67
2023/09/27 11:02:41;;;;;;;18.30;17.70;;;23.40;99.90;;;;;;5067957;28;20665;-67
2023/09/27 11:05:08;;;;;;;19.77;19.08;;;23.40;99.90;;;;;;5069248;28;20288;-65
2023/09/27 11:07:50;;;;;;;15.50;15.00;;;23.50;99.90;;;;;;5066921;28;20289;-67
2023/09/27 11:10:33;;;;;;;15.15;14.57;;;23.50;99.90;;;;;;5066398;28;20234;-66
2023/09/27 11:13:09;;;;;;;15.47;14.97;;;23.60;99.90;;;;;;5064713;28;20195;-65
2023/09/27 11:15:37;;;;;;;16.27;15.68;;;23.60;99.90;;;;;;5067479;28;20205;-65
2023/09/27 11:18:05;;;;;;;16.58;15.98;;;23.60;99.90;;;;;;5067782;28;20706;-67
2023/09/27 11:20:32;;;;;;;17.35;16.75;;;23.50;99.90;;;;;;5065025;28;20227;-65
2023/09/27 11:22:59;;;;;;;16.60;15.93;;;23.60;99.90;;;;;;5067586;28;20258;-65
2023/09/27 11:25:27;;;;;;;17.65;17.05;;;23.70;99.90;;;;;;5066724;28;20219;-66
2023/09/27 11:27:54;;;;;;;16.83;16.23;;;23.70;99.90;;;;;;5065629;28;20662;-66
2023/09/27 11:30:25;;;;;;;16.15;15.55;;;23.70;99.90;;;;;;5069272;28;20519;-66
2023/09/27 11:32:53;;;;;;;15.98;15.48;;;23.70;99.90;;;;;;5066061;28;20207;-66
2023/09/27 11:35:20;;;;;;;23.15;22.27;;;23.80;99.90;;;;;;5068399;28;20203;-65
2023/09/27 11:37:47;;;;;;;15.40;14.90;;;23.60;99.90;;;;;;5067850;28;20214;-64
2023/09/27 11:40:15;;;;;;;16.17;15.57;;;23.30;99.90;;;;;;5068484;28;20733;-66
2023/09/27 11:42:43;;;;;;;17.90;17.30;;;23.20;99.90;;;;;;5068008;28;20214;-65
2023/09/27 11:45:12;;;;;;;18.88;18.17;;;23.10;99.90;;;;;;5070093;28;20233;-65
2023/09/27 11:47:46;;;;;;;16.20;15.60;;;23.10;99.90;;;;;;5069486;28;20801;-66
2023/09/27 11:50:15;;;;;;;16.63;16.02;;;23.30;99.90;;;;;;5064583;28;20729;-66
2023/09/27 11:52:43;;;;;;;16.40;15.80;;;23.50;99.90;;;;;;5065413;28;20209;-66
2023/09/27 11:55:10;;;;;;;16.08;15.57;;;23.70;99.90;;;;;;5066315;28;20264;-66
2023/09/27 11:57:37;;;;;;;16.00;15.40;;;23.90;99.90;;;;;;5068547;28;20297;-66
2023/09/27 12:00:08;;;;;;;15.23;14.73;;;23.90;99.90;;;;;;5069638;28;20214;-65
2023/09/27 12:02:34;;;;;;;15.35;14.85;;;24.10;99.90;;;;;;5067737;28;20222;-64
2023/09/27 12:05:04;;;;;;;18.40;17.73;;;24.10;99.90;;;;;;5070149;28;20661;-65
2023/09/27 12:07:33;;;;;;;18.40;17.70;;;24.10;99.90;;;;;;5069635;28;20217;-65
2023/09/27 12:09:59;;;;;;;18.10;17.45;;;24.10;99.90;;;;;;5069924;28;20290;-67
2023/09/27 12:12:28;;;;;;;17.13;16.52;;;24.00;99.90;;;;;;5069990;28;20215;-65
2023/09/27 12:14:54;;;;;;;16.65;16.05;;;24.00;99.90;;;;;;5069985;28;20657;-65
2023/09/27 12:17:22;;;;;;;17.08;16.48;;;24.10;99.90;;;;;;5068564;28;20207;-66
2023/09/27 12:19:49;;;;;;;15.32;14.82;;;24.30;99.90;;;;;;5060683;28;20663;-66
2023/09/27 12:22:16;;;;;;;16.80;16.20;;;24.40;99.90;;;;;;5069865;28;20208;-64
2023/09/27 12:24:44;;;;;;;15.48;14.93;;;24.40;99.90;;;;;;5069598;28;20681;-65
2023/09/27 12:27:12;;;;;;;16.83;16.23;;;24.40;99.90;;;;;;5069541;28;20211;-66
2023/09/27 12:29:38;;;;;;;16.20;15.65;;;24.40;99.90;;;;;;5070082;28;20203;-66
2023/09/27 12:32:05;;;;;;;15.95;15.35;;;24.60;99.90;;;;;;5070128;28;20227;-66
2023/09/27 12:34:32;;;;;;;16.65;16.05;;;24.70;99.90;;;;;;5070275;28;20207;-64